Time;durP1;ratioP1;P1;durP2;ratioP2;P2;SDS_P1;SDS_P2;PMS_P1;PMS_P2;Temp;Humidity;BMP_temperature;BMP_pressure;BME280_temperature;BME280_humidity;BME280_pressure;Samples;Min_cycle;Max_cycle;Signal;HPM_P1;HPM_P2
2021/09/08 00:01:38;;;;;;;2.80;2.50;;;15.40;53.90;;;;;;5049393;28;20206;-77
2021/09/08 00:04:05;;;;;;;2.77;2.40;;;15.40;54.00;;;;;;5077720;28;20228;-76
2021/09/08 00:06:32;;;;;;;2.87;2.17;;;15.40;54.20;;;;;;5048620;28;20197;-76
2021/09/08 00:08:59;;;;;;;2.60;2.40;;;15.40;54.20;;;;;;5036377;28;20198;-76
2021/09/08 00:11:25;;;;;;;2.50;2.30;;;15.40;54.40;;;;;;5046861;28;20247;-76
2021/09/08 00:13:52;;;;;;;2.73;2.33;;;15.30;54.50;;;;;;5049330;28;20200;-76
2021/09/08 00:16:19;;;;;;;2.40;2.13;;;15.30;54.60;;;;;;5048746;28;20240;-77
2021/09/08 00:18:48;;;;;;;2.37;2.17;;;15.30;54.70;;;;;;5049448;28;20716;-77
2021/09/08 00:21:15;;;;;;;1.93;1.83;;;15.30;54.80;;;;;;5049124;28;20196;-78
2021/09/08 00:23:42;;;;;;;2.77;2.00;;;15.20;54.80;;;;;;5049448;28;20196;-76
2021/09/08 00:26:08;;;;;;;2.20;2.00;;;15.20;54.90;;;;;;5046012;28;20189;-77
2021/09/08 00:28:35;;;;;;;2.33;2.13;;;15.20;55.00;;;;;;5047699;28;20431;-76
2021/09/08 00:31:02;;;;;;;2.00;1.80;;;15.20;55.30;;;;;;5047001;28;20216;-78
2021/09/08 00:33:30;;;;;;;2.10;1.90;;;15.10;55.40;;;;;;5048662;28;20203;-76
2021/09/08 00:35:58;;;;;;;2.47;2.17;;;15.10;55.50;;;;;;5048578;28;20197;-76
2021/09/08 00:38:26;;;;;;;2.10;1.90;;;15.10;55.70;;;;;;5048687;28;20210;-76
2021/09/08 00:40:55;;;;;;;2.43;2.10;;;15.10;55.80;;;;;;5046245;28;20216;-76
2021/09/08 00:43:22;;;;;;;2.00;1.80;;;15.10;56.00;;;;;;5048877;28;20235;-77
2021/09/08 00:45:51;;;;;;;2.57;2.10;;;15.00;56.00;;;;;;5047260;28;20220;-76
2021/09/08 00:48:19;;;;;;;2.87;2.17;;;15.00;56.20;;;;;;5047155;28;20196;-77
2021/09/08 00:50:47;;;;;;;2.93;2.20;;;14.90;56.30;;;;;;5048900;28;20284;-77
2021/09/08 00:53:17;;;;;;;2.07;1.87;;;14.90;56.50;;;;;;5049335;28;20211;-77
2021/09/08 00:55:47;;;;;;;2.50;2.17;;;14.90;56.60;;;;;;5047654;28;20195;-77
2021/09/08 00:58:17;;;;;;;2.70;2.40;;;14.90;56.80;;;;;;5047416;28;20576;-77
2021/09/08 01:00:44;;;;;;;2.60;2.40;;;14.90;57.10;;;;;;5048830;28;20205;-77
2021/09/08 01:03:11;;;;;;;3.33;2.57;;;14.90;57.20;;;;;;5048413;28;20204;-77
2021/09/08 01:05:41;;;;;;;3.17;2.87;;;14.80;57.30;;;;;;5048865;28;20196;-77
2021/09/08 01:08:09;;;;;;;2.67;2.47;;;14.80;57.50;;;;;;5048597;28;20560;-77
2021/09/08 01:10:38;;;;;;;2.50;2.30;;;14.80;57.70;;;;;;5066801;28;20221;-77
2021/09/08 01:13:07;;;;;;;2.60;2.40;;;14.80;57.90;;;;;;5046335;28;20596;-77
2021/09/08 01:15:36;;;;;;;3.57;2.67;;;14.80;58.10;;;;;;5047870;28;20276;-77
2021/09/08 01:18:03;;;;;;;2.40;2.20;;;14.70;58.40;;;;;;5052264;28;20549;-77
2021/09/08 01:20:30;;;;;;;2.87;2.57;;;14.70;58.50;;;;;;5073310;28;20204;-77
2021/09/08 01:22:59;;;;;;;2.73;2.43;;;14.70;58.70;;;;;;5051032;28;20261;-77
2021/09/08 01:25:27;;;;;;;2.50;2.30;;;14.70;58.90;;;;;;5050298;28;20218;-77
2021/09/08 01:27:56;;;;;;;2.40;2.20;;;14.70;59.20;;;;;;5049428;28;20249;-77
2021/09/08 01:30:24;;;;;;;2.13;1.90;;;14.70;59.40;;;;;;5052524;28;20204;-77
2021/09/08 01:32:52;;;;;;;2.10;1.93;;;14.60;59.50;;;;;;5051599;28;20699;-77
2021/09/08 01:35:21;;;;;;;2.77;2.53;;;14.60;59.80;;;;;;5051206;28;20264;-77
2021/09/08 01:37:49;;;;;;;2.47;2.27;;;14.60;60.10;;;;;;5050009;28;20198;-76
2021/09/08 01:40:18;;;;;;;2.47;2.10;;;14.60;60.50;;;;;;5051191;28;20208;-77
2021/09/08 01:42:45;;;;;;;2.30;2.10;;;14.50;60.80;;;;;;5051303;28;20651;-77
2021/09/08 01:45:13;;;;;;;2.20;2.00;;;14.50;61.00;;;;;;5051690;28;20215;-77
2021/09/08 01:47:40;;;;;;;2.00;1.90;;;14.50;61.30;;;;;;5049568;28;20307;-77
2021/09/08 01:50:09;;;;;;;2.83;2.10;;;14.50;61.60;;;;;;5052390;28;20203;-77
2021/09/08 01:52:37;;;;;;;2.03;1.90;;;14.50;62.00;;;;;;5050382;28;20342;-76
2021/09/08 01:55:04;;;;;;;2.97;2.33;;;14.40;62.20;;;;;;5051620;28;20203;-77
2021/09/08 01:57:33;;;;;;;2.53;2.27;;;14.50;62.80;;;;;;5051060;28;20281;-77
2021/09/08 02:00:00;;;;;;;2.20;2.00;;;14.40;63.10;;;;;;5050736;28;20211;-77
2021/09/08 02:02:28;;;;;;;2.50;2.30;;;14.40;63.50;;;;;;5051299;28;20287;-77
2021/09/08 02:04:55;;;;;;;2.30;2.10;;;14.40;63.90;;;;;;5051924;28;20256;-77
2021/09/08 02:07:22;;;;;;;4.93;2.10;;;14.30;64.30;;;;;;5037570;28;20219;-77
2021/09/08 02:09:49;;;;;;;2.93;2.30;;;14.30;64.50;;;;;;5043642;28;20231;-77
2021/09/08 02:12:16;;;;;;;2.00;1.80;;;14.30;65.00;;;;;;5070373;28;20727;-77
2021/09/08 02:14:44;;;;;;;2.00;1.90;;;14.30;65.30;;;;;;5051693;28;20207;-77
2021/09/08 02:17:11;;;;;;;1.97;1.87;;;14.30;65.70;;;;;;5083141;28;20222;-77
2021/09/08 02:19:38;;;;;;;2.10;2.00;;;14.20;65.90;;;;;;5049786;28;20678;-77
2021/09/08 02:22:05;;;;;;;2.60;2.07;;;14.30;66.50;;;;;;5051265;28;20191;-77
2021/09/08 02:24:32;;;;;;;2.33;2.00;;;14.20;66.80;;;;;;5049377;28;20198;-77
2021/09/08 02:26:59;;;;;;;1.77;1.67;;;14.20;67.20;;;;;;5048505;28;20598;-77
2021/09/08 02:29:25;;;;;;;1.87;1.77;;;14.20;67.50;;;;;;5049025;28;20568;-77
2021/09/08 02:31:54;;;;;;;1.97;1.83;;;14.20;68.00;;;;;;5050744;28;20203;-77
2021/09/08 02:34:21;;;;;;;3.33;1.60;;;14.20;68.50;;;;;;5050201;28;20207;-77
2021/09/08 02:36:47;;;;;;;2.10;1.90;;;14.10;68.80;;;;;;5049127;28;20293;-77
2021/09/08 02:39:14;;;;;;;2.90;2.20;;;14.10;69.30;;;;;;5048993;28;20675;-77
2021/09/08 02:41:41;;;;;;;2.80;2.00;;;14.10;69.90;;;;;;5050359;28;20209;-77
2021/09/08 02:44:08;;;;;;;2.97;1.70;;;14.10;70.50;;;;;;5050941;28;20195;-77
2021/09/08 02:46:35;;;;;;;2.23;2.00;;;14.10;70.90;;;;;;5049931;28;20210;-77
2021/09/08 02:49:03;;;;;;;2.50;2.30;;;14.10;71.50;;;;;;5050147;28;20191;-77
2021/09/08 02:51:30;;;;;;;2.37;1.97;;;14.00;72.00;;;;;;5049766;28;20202;-78
2021/09/08 02:53:57;;;;;;;2.20;2.00;;;14.10;72.60;;;;;;5050370;28;20211;-77
2021/09/08 02:56:24;;;;;;;2.57;2.00;;;14.00;73.00;;;;;;5048314;28;20245;-77
2021/09/08 02:58:51;;;;;;;2.03;1.83;;;14.00;73.50;;;;;;5050877;28;20281;-77
2021/09/08 03:01:18;;;;;;;2.40;1.90;;;14.00;74.20;;;;;;5050191;28;20264;-77
2021/09/08 03:03:45;;;;;;;1.97;1.87;;;14.00;74.70;;;;;;5049085;28;20674;-77
2021/09/08 03:06:13;;;;;;;1.97;1.87;;;14.00;75.30;;;;;;5049283;28;20207;-77
2021/09/08 03:08:40;;;;;;;1.67;1.57;;;14.00;75.80;;;;;;5049557;28;20198;-77
2021/09/08 03:11:08;;;;;;;1.73;1.63;;;14.00;76.40;;;;;;5047522;28;20215;-77
2021/09/08 03:13:35;;;;;;;1.73;1.63;;;14.00;76.90;;;;;;5050882;28;20230;-77
2021/09/08 03:16:02;;;;;;;1.57;1.47;;;14.00;77.40;;;;;;5048592;28;20509;-77
2021/09/08 03:18:29;;;;;;;7.93;2.17;;;13.90;77.90;;;;;;5049789;28;20199;-78
2021/09/08 03:20:56;;;;;;;1.90;1.80;;;14.00;78.60;;;;;;5050268;28;20662;-77
2021/09/08 03:23:24;;;;;;;1.77;1.60;;;14.00;79.20;;;;;;5050424;28;20199;-77
2021/09/08 03:25:51;;;;;;;2.73;1.70;;;14.00;79.80;;;;;;5048799;28;20515;-77
2021/09/08 03:28:18;;;;;;;2.03;1.87;;;13.90;80.30;;;;;;5049412;28;20214;-77
2021/09/08 03:30:45;;;;;;;1.97;1.87;;;14.00;81.00;;;;;;5049785;28;20200;-77
2021/09/08 03:33:12;;;;;;;2.87;1.90;;;13.90;81.60;;;;;;5049451;28;20225;-77
2021/09/08 03:35:39;;;;;;;2.00;1.80;;;13.90;82.30;;;;;;5048446;28;20296;-77
2021/09/08 03:38:06;;;;;;;3.00;1.87;;;13.90;83.00;;;;;;5048180;28;20190;-77
2021/09/08 03:40:34;;;;;;;2.30;2.10;;;13.90;83.70;;;;;;5041999;28;20666;-77
2021/09/08 03:43:01;;;;;;;2.00;1.90;;;13.90;84.30;;;;;;5047680;28;20209;-77
2021/09/08 03:45:28;;;;;;;2.70;2.30;;;13.90;84.90;;;;;;5041959;28;20285;-77
2021/09/08 03:47:55;;;;;;;2.00;1.80;;;13.90;85.50;;;;;;5049212;28;20279;-77
2021/09/08 03:50:22;;;;;;;2.40;2.10;;;13.90;86.10;;;;;;5049635;28;20686;-77
2021/09/08 03:52:50;;;;;;;2.60;2.07;;;13.90;86.60;;;;;;5049698;28;20200;-77
2021/09/08 03:55:17;;;;;;;2.30;2.03;;;13.80;87.10;;;;;;5047719;28;20252;-77
2021/09/08 03:57:45;;;;;;;2.93;2.03;;;13.80;87.70;;;;;;5049313;28;20203;-77
2021/09/08 04:00:13;;;;;;;2.60;2.40;;;13.90;88.00;;;;;;5050168;28;20202;-76
2021/09/08 04:02:40;;;;;;;1.97;1.77;;;13.80;88.90;;;;;;5048214;28;20209;-77
2021/09/08 04:05:08;;;;;;;1.93;1.80;;;13.80;89.40;;;;;;5049802;28;20189;-77
2021/09/08 04:07:35;;;;;;;2.13;1.83;;;13.80;89.80;;;;;;5044775;28;20214;-77
2021/09/08 04:10:03;;;;;;;1.63;1.53;;;13.80;90.10;;;;;;5042997;28;20637;-77
2021/09/08 04:12:30;;;;;;;2.20;2.00;;;13.90;90.40;;;;;;5047038;28;20674;-77
2021/09/08 04:14:59;;;;;;;1.60;1.50;;;13.90;90.90;;;;;;5049438;28;20254;-77
2021/09/08 04:17:26;;;;;;;1.50;1.40;;;13.90;90.70;;;;;;5047402;28;20199;-77
2021/09/08 04:19:53;;;;;;;1.80;1.70;;;13.90;90.90;;;;;;5047794;28;20213;-77
2021/09/08 04:22:20;;;;;;;4.00;1.63;;;13.90;91.10;;;;;;5049257;28;20201;-77
2021/09/08 04:24:46;;;;;;;1.87;1.70;;;13.90;91.30;;;;;;5048240;28;20193;-77
2021/09/08 04:27:13;;;;;;;2.17;1.80;;;13.90;91.40;;;;;;5046785;28;20237;-77
2021/09/08 04:29:40;;;;;;;1.60;1.50;;;13.90;91.60;;;;;;5047563;28;20226;-77
2021/09/08 04:32:09;;;;;;;3.60;2.17;;;13.90;91.80;;;;;;5048379;28;20202;-77
2021/09/08 04:34:36;;;;;;;2.37;1.90;;;13.90;92.00;;;;;;5048951;28;20201;-77
2021/09/08 04:37:03;;;;;;;2.50;2.30;;;13.90;92.20;;;;;;5038904;28;20201;-77
2021/09/08 04:39:30;;;;;;;2.33;2.13;;;13.90;92.40;;;;;;5048277;28;20202;-77
2021/09/08 04:41:56;;;;;;;2.57;2.37;;;13.90;92.90;;;;;;5047643;28;20208;-77
2021/09/08 04:44:24;;;;;;;2.63;2.27;;;13.90;92.80;;;;;;5049373;28;20194;-77
2021/09/08 04:46:51;;;;;;;2.30;2.10;;;13.90;92.90;;;;;;5048336;28;20201;-77
2021/09/08 04:49:19;;;;;;;2.37;2.17;;;13.90;93.10;;;;;;5048394;28;20193;-77
2021/09/08 04:51:46;;;;;;;2.63;2.30;;;13.90;93.20;;;;;;5050206;28;20720;-77
2021/09/08 04:54:13;;;;;;;3.40;2.60;;;14.00;93.30;;;;;;5050817;28;20955;-77
2021/09/08 04:56:40;;;;;;;2.50;2.23;;;14.00;93.40;;;;;;5050913;28;20268;-77
2021/09/08 04:59:07;;;;;;;2.43;2.23;;;14.00;93.50;;;;;;5051885;28;20664;-77
2021/09/08 05:01:34;;;;;;;2.03;1.93;;;14.10;93.60;;;;;;5051087;28;20683;-77
2021/09/08 05:04:01;;;;;;;2.30;2.10;;;14.10;93.60;;;;;;5051510;28;20206;-77
2021/09/08 05:06:29;;;;;;;2.30;2.10;;;14.20;93.70;;;;;;5051288;28;20202;-77
2021/09/08 05:08:56;;;;;;;2.33;2.13;;;14.20;93.70;;;;;;5051140;28;20226;-77
2021/09/08 05:11:23;;;;;;;2.43;2.23;;;14.30;93.80;;;;;;5051301;28;20768;-77
2021/09/08 05:13:50;;;;;;;3.50;2.60;;;14.30;93.90;;;;;;5053057;28;20212;-78
2021/09/08 05:16:18;;;;;;;2.90;2.60;;;14.40;94.00;;;;;;5052597;28;20194;-77
2021/09/08 05:18:44;;;;;;;3.83;2.87;;;14.40;94.00;;;;;;5051456;28;20212;-77
2021/09/08 05:21:11;;;;;;;3.97;2.97;;;14.50;94.00;;;;;;5050507;28;20671;-77
2021/09/08 05:23:40;;;;;;;5.27;3.27;;;14.60;94.10;;;;;;5051430;28;20257;-77
2021/09/08 05:26:07;;;;;;;3.50;3.20;;;14.60;94.10;;;;;;5049185;28;20205;-77
2021/09/08 05:28:34;;;;;;;5.07;3.50;;;14.70;94.20;;;;;;5051026;28;20249;-77
2021/09/08 05:31:01;;;;;;;4.67;3.20;;;14.70;94.20;;;;;;5051549;28;20195;-78
2021/09/08 05:33:28;;;;;;;3.77;3.10;;;14.80;94.30;;;;;;5051835;28;20596;-77
2021/09/08 05:35:55;;;;;;;3.40;2.93;;;14.80;94.30;;;;;;5050415;28;20206;-77
2021/09/08 05:38:21;;;;;;;3.47;3.17;;;14.90;94.30;;;;;;5052208;28;20191;-77
2021/09/08 05:40:51;;;;;;;3.17;2.90;;;15.00;94.30;;;;;;5049483;28;20208;-77
2021/09/08 05:43:18;;;;;;;2.87;2.67;;;15.10;94.30;;;;;;5051712;28;20653;-77
2021/09/08 05:45:45;;;;;;;2.80;2.60;;;15.20;94.20;;;;;;5051830;28;20541;-77
2021/09/08 05:48:12;;;;;;;3.53;2.40;;;15.30;94.20;;;;;;5049745;28;20225;-77
2021/09/08 05:50:39;;;;;;;2.73;2.50;;;15.40;94.10;;;;;;5050286;28;20201;-77
2021/09/08 05:53:06;;;;;;;2.97;2.57;;;15.50;94.10;;;;;;5051449;28;20220;-76
2021/09/08 05:55:33;;;;;;;2.40;2.20;;;15.70;94.10;;;;;;5051015;28;20278;-76
2021/09/08 05:58:01;;;;;;;2.30;2.10;;;15.90;94.00;;;;;;5049519;28;20672;-76
2021/09/08 06:00:29;;;;;;;2.63;2.43;;;16.80;93.80;;;;;;5051640;28;20760;-77
2021/09/08 06:02:56;;;;;;;2.93;2.47;;;18.10;92.30;;;;;;5048426;28;20198;-77
2021/09/08 06:05:23;;;;;;;2.57;2.07;;;19.20;90.50;;;;;;5051057;28;20296;-77
2021/09/08 06:07:50;;;;;;;3.30;2.47;;;20.20;87.40;;;;;;5051489;28;20223;-77
2021/09/08 06:10:20;;;;;;;2.70;2.50;;;21.00;84.60;;;;;;5050874;28;20200;-77
2021/09/08 06:12:47;;;;;;;4.50;2.50;;;21.30;82.90;;;;;;5050121;28;20227;-77
2021/09/08 06:15:17;;;;;;;2.65;2.45;;;21.60;81.80;;;;;;5050544;28;20212;-77
2021/09/08 06:17:44;;;;;;;2.35;2.15;;;21.80;80.90;;;;;;5051218;28;20281;-77
2021/09/08 06:20:11;;;;;;;3.03;2.72;;;22.00;80.20;;;;;;5050245;28;20208;-77
2021/09/08 06:22:38;;;;;;;4.05;3.30;;;22.30;79.20;;;;;;5049410;28;20268;-78
2021/09/08 06:25:06;;;;;;;4.60;2.60;;;22.50;77.80;;;;;;5050700;28;20194;-78
2021/09/08 06:27:33;;;;;;;3.28;2.47;;;22.80;76.60;;;;;;5048764;28;20329;-79
2021/09/08 06:30:00;;;;;;;2.60;2.40;;;23.10;75.10;;;;;;5051264;28;20190;-79
2021/09/08 06:32:28;;;;;;;2.67;2.47;;;23.60;73.70;;;;;;5050561;28;20190;-78
2021/09/08 06:34:56;;;;;;;2.88;2.67;;;24.10;71.70;;;;;;5049906;28;20202;-79
2021/09/08 06:37:23;;;;;;;2.60;2.40;;;24.70;69.70;;;;;;5051005;28;20209;-78
2021/09/08 06:39:50;;;;;;;5.10;2.70;;;25.50;67.30;;;;;;5049593;28;20288;-79
2021/09/08 06:42:17;;;;;;;2.30;2.10;;;26.60;64.10;;;;;;5050049;28;20205;-78
2021/09/08 06:44:44;;;;;;;2.88;2.65;;;28.00;60.20;;;;;;5044730;28;20198;-79
2021/09/08 06:47:11;;;;;;;3.33;2.65;;;29.50;56.70;;;;;;5058053;28;20219;-78
2021/09/08 06:49:39;;;;;;;4.65;3.00;;;30.90;53.60;;;;;;5050737;28;20578;-78
2021/09/08 06:52:06;;;;;;;2.53;2.33;;;32.40;50.40;;;;;;5048653;28;20320;-79
2021/09/08 06:54:33;;;;;;;2.72;2.47;;;33.80;47.80;;;;;;5049759;28;20236;-79
2021/09/08 06:57:00;;;;;;;4.20;3.03;;;35.10;45.00;;;;;;5047944;28;20212;-78
2021/09/08 06:59:27;;;;;;;2.85;2.40;;;36.50;42.70;;;;;;5049567;28;20669;-78
2021/09/08 07:01:54;;;;;;;3.58;2.45;;;37.70;40.70;;;;;;5047998;28;20230;-78
2021/09/08 07:04:21;;;;;;;2.92;2.70;;;38.80;38.70;;;;;;5050882;28;20269;-78
2021/09/08 07:06:49;;;;;;;2.85;2.65;;;39.90;36.70;;;;;;5050205;28;20220;-79
2021/09/08 07:09:16;;;;;;;3.72;2.33;;;40.90;35.10;;;;;;5048756;28;20636;-79
2021/09/08 07:11:43;;;;;;;2.63;2.53;;;41.70;33.80;;;;;;5049344;28;20508;-79
2021/09/08 07:14:10;;;;;;;2.67;2.47;;;42.60;32.60;;;;;;5049153;28;20311;-78
2021/09/08 07:16:37;;;;;;;3.78;2.60;;;43.40;31.20;;;;;;5049044;28;20213;-79
2021/09/08 07:19:04;;;;;;;3.25;3.00;;;44.10;30.00;;;;;;5050607;28;20189;-78
2021/09/08 07:21:31;;;;;;;2.83;2.63;;;44.80;28.90;;;;;;5050139;28;20205;-78
2021/09/08 07:23:59;;;;;;;3.60;3.40;;;45.50;28.50;;;;;;5048160;28;20577;-78
2021/09/08 07:26:32;;;;;;;4.32;3.20;;;45.90;27.40;;;;;;5048988;28;20236;-78
2021/09/08 07:28:59;;;;;;;4.00;3.70;;;46.40;27.00;;;;;;5050269;28;20194;-78
2021/09/08 07:31:26;;;;;;;3.80;3.60;;;46.90;26.30;;;;;;5049053;28;20197;-79
2021/09/08 07:33:53;;;;;;;3.78;3.58;;;47.40;25.50;;;;;;5049972;28;20201;-79
2021/09/08 07:36:20;;;;;;;4.28;3.97;;;47.90;25.20;;;;;;5048208;28;20209;-79
2021/09/08 07:38:47;;;;;;;4.07;3.78;;;48.30;24.60;;;;;;5048751;28;20237;-79
2021/09/08 07:41:15;;;;;;;4.20;3.90;;;48.60;24.10;;;;;;5046251;28;20209;-79
2021/09/08 07:43:42;;;;;;;4.72;4.43;;;49.00;23.60;;;;;;5048653;28;20217;-79
2021/09/08 07:46:11;;;;;;;4.55;4.25;;;49.50;23.20;;;;;;5049531;28;20283;-79
2021/09/08 07:48:38;;;;;;;3.92;3.72;;;50.00;23.50;;;;;;5040227;28;20213;-79
2021/09/08 07:51:05;;;;;;;4.18;3.97;;;50.40;22.60;;;;;;5048723;28;20677;-79
2021/09/08 07:53:32;;;;;;;4.20;4.00;;;50.80;22.20;;;;;;5040786;28;20585;-79
2021/09/08 07:55:59;;;;;;;6.85;5.00;;;51.10;21.60;;;;;;5046788;28;20215;-80
2021/09/08 07:58:27;;;;;;;5.35;4.97;;;51.40;21.20;;;;;;5049013;28;20728;-79
2021/09/08 08:00:54;;;;;;;6.15;5.72;;;51.70;20.80;;;;;;5051319;28;20220;-79
2021/09/08 08:03:21;;;;;;;4.97;4.68;;;52.20;20.70;;;;;;5044295;28;20680;-80
2021/09/08 08:05:48;;;;;;;4.72;4.43;;;52.50;20.40;;;;;;5049572;28;20201;-79
2021/09/08 08:08:16;;;;;;;5.25;4.95;;;52.90;20.10;;;;;;5036571;28;20269;-80
2021/09/08 08:10:46;;;;;;;5.85;5.45;;;53.30;19.80;;;;;;5047107;28;20213;-80
2021/09/08 08:13:13;;;;;;;5.50;5.10;;;53.60;19.60;;;;;;5048791;28;20504;-80
2021/09/08 08:15:42;;;;;;;5.57;5.18;;;54.00;19.50;;;;;;5048719;28;20209;-80
2021/09/08 08:18:09;;;;;;;5.78;5.38;;;54.40;19.10;;;;;;5047367;28;20574;-80
2021/09/08 08:20:36;;;;;;;4.63;4.43;;;54.70;19.00;;;;;;5048326;28;20217;-80
2021/09/08 08:23:04;;;;;;;5.80;5.30;;;55.00;18.80;;;;;;5049350;28;20217;-79
2021/09/08 08:25:31;;;;;;;5.20;4.90;;;55.30;18.50;;;;;;5035381;28;20255;-80
2021/09/08 08:28:00;;;;;;;5.43;5.13;;;55.60;18.30;;;;;;5047958;28;20205;-80
2021/09/08 08:30:27;;;;;;;5.20;4.93;;;55.80;18.20;;;;;;5038690;28;20734;-80
2021/09/08 08:32:56;;;;;;;5.15;4.85;;;56.10;18.00;;;;;;5046634;28;20614;-79
2021/09/08 08:35:23;;;;;;;4.63;4.40;;;56.30;17.80;;;;;;5054645;28;20684;-79
2021/09/08 08:37:51;;;;;;;5.18;4.88;;;56.50;17.70;;;;;;5049081;28;20198;-81
2021/09/08 08:40:19;;;;;;;5.70;5.28;;;56.80;17.60;;;;;;5048427;28;20208;-78
2021/09/08 08:42:47;;;;;;;6.13;5.80;;;57.00;17.40;;;;;;5046359;28;20308;-79
2021/09/08 08:45:14;;;;;;;5.07;4.80;;;57.10;17.00;;;;;;5048401;28;20200;-79
2021/09/08 08:47:42;;;;;;;7.53;6.95;;;57.20;17.00;;;;;;5048245;28;20672;-79
2021/09/08 08:50:13;;;;;;;6.25;5.85;;;57.40;16.70;;;;;;5048984;28;20196;-79
2021/09/08 08:52:41;;;;;;;6.05;5.70;;;57.60;16.50;;;;;;5048236;28;20251;-79
2021/09/08 08:55:09;;;;;;;6.30;5.88;;;57.70;16.20;;;;;;5047960;28;20209;-79
2021/09/08 08:57:36;;;;;;;6.00;5.50;;;57.60;16.10;;;;;;5047637;28;20280;-80
2021/09/08 09:00:04;;;;;;;6.05;5.65;;;57.70;16.20;;;;;;5048925;28;20216;-81
2021/09/08 09:02:33;;;;;;;5.60;5.30;;;57.90;16.00;;;;;;5047041;28;20538;-80
2021/09/08 09:05:04;;;;;;;5.65;5.35;;;57.90;16.00;;;;;;5048732;28;20599;-81
2021/09/08 09:07:34;;;;;;;6.68;5.78;;;58.20;16.00;;;;;;5049061;28;20606;-81
2021/09/08 09:10:04;;;;;;;7.40;6.40;;;58.50;15.70;;;;;;5046993;28;20205;-80
2021/09/08 09:12:33;;;;;;;6.35;5.80;;;58.90;15.50;;;;;;5046628;28;20260;-80
2021/09/08 09:15:03;;;;;;;8.00;7.50;;;59.00;15.40;;;;;;5047816;28;20206;-81
2021/09/08 09:17:32;;;;;;;8.20;7.70;;;59.20;15.40;;;;;;5049641;28;20566;-80
2021/09/08 09:20:02;;;;;;;7.28;6.80;;;59.40;15.30;;;;;;5049514;28;20654;-80
2021/09/08 09:22:39;;;;;;;6.75;6.38;;;59.40;15.00;;;;;;5048571;28;20198;-80
2021/09/08 09:25:07;;;;;;;6.40;6.00;;;59.30;15.00;;;;;;5046323;28;20209;-80
2021/09/08 09:27:36;;;;;;;5.88;5.55;;;59.20;14.90;;;;;;5046625;28;20205;-80
2021/09/08 09:30:09;;;;;;;5.75;5.45;;;59.30;14.90;;;;;;5048660;28;20263;-81
2021/09/08 09:32:41;;;;;;;7.22;6.75;;;59.30;14.70;;;;;;5046878;28;20205;-80
2021/09/08 09:35:10;;;;;;;7.55;7.05;;;59.20;14.60;;;;;;5048387;28;20197;-80
2021/09/08 09:37:45;;;;;;;6.65;6.25;;;59.20;14.50;;;;;;5048477;28;20512;-81
2021/09/08 09:40:13;;;;;;;6.72;6.32;;;59.10;14.50;;;;;;5051674;28;20298;-80
2021/09/08 09:42:40;;;;;;;6.43;5.88;;;59.10;14.40;;;;;;5051054;28;20201;-80
2021/09/08 09:45:08;;;;;;;6.53;6.03;;;59.00;14.20;;;;;;5051945;28;20193;-80
2021/09/08 09:47:36;;;;;;;6.45;6.15;;;58.60;14.20;;;;;;5049737;28;20224;-80
2021/09/08 09:50:06;;;;;;;7.60;7.07;;;58.50;14.20;;;;;;5050652;28;20563;-80
2021/09/08 09:52:33;;;;;;;6.63;6.30;;;58.50;14.10;;;;;;5051851;28;20205;-80
2021/09/08 09:55:02;;;;;;;6.88;6.57;;;58.50;14.10;;;;;;5050971;28;20251;-80
2021/09/08 09:57:30;;;;;;;6.90;6.50;;;58.50;14.10;;;;;;5049296;28;20256;-80
2021/09/08 09:59:57;;;;;;;6.75;6.30;;;58.50;14.20;;;;;;5050504;28;20264;-81
2021/09/08 10:02:25;;;;;;;6.65;6.35;;;58.60;14.10;;;;;;5049584;28;20610;-80
2021/09/08 10:04:53;;;;;;;6.32;5.82;;;58.50;14.00;;;;;;5051603;28;20562;-81
2021/09/08 10:07:22;;;;;;;7.75;7.15;;;58.70;14.10;;;;;;5051448;28;20200;-81
2021/09/08 10:09:54;;;;;;;6.47;6.18;;;58.30;13.90;;;;;;5049753;28;20244;-81
2021/09/08 10:12:31;;;;;;;7.70;7.20;;;58.30;14.00;;;;;;5049663;28;20229;-80
2021/09/08 10:15:00;;;;;;;7.95;7.43;;;58.30;14.00;;;;;;5047172;28;20205;-80
2021/09/08 10:17:33;;;;;;;6.50;6.20;;;58.20;13.90;;;;;;5051590;28;20200;-80
2021/09/08 10:20:05;;;;;;;7.18;6.78;;;58.10;14.00;;;;;;5050411;28;20217;-80
2021/09/08 10:22:32;;;;;;;6.57;6.18;;;57.90;14.00;;;;;;5051417;28;20197;-81
2021/09/08 10:25:09;;;;;;;7.03;6.50;;;57.90;14.10;;;;;;5049287;28;20209;-81
2021/09/08 10:27:37;;;;;;;7.13;6.63;;;57.80;14.10;;;;;;5049637;28;20228;-81
2021/09/08 10:30:05;;;;;;;6.57;6.20;;;57.50;13.90;;;;;;5061723;28;20205;-81
2021/09/08 10:32:35;;;;;;;7.10;6.43;;;57.50;14.10;;;;;;5049390;28;20642;-81
2021/09/08 10:35:12;;;;;;;5.95;5.72;;;57.50;14.00;;;;;;5050010;28;20201;-81
2021/09/08 10:37:40;;;;;;;6.50;6.03;;;57.40;14.10;;;;;;5051290;28;20221;-81
2021/09/08 10:40:09;;;;;;;6.80;6.40;;;57.30;14.10;;;;;;5048964;28;20585;-81
2021/09/08 10:42:51;;;;;;;6.60;6.30;;;57.30;14.30;;;;;;5049965;28;20197;-81
2021/09/08 10:45:23;;;;;;;6.85;6.45;;;57.30;14.30;;;;;;5042784;28;20198;-81
2021/09/08 10:47:51;;;;;;;6.38;5.97;;;57.50;14.30;;;;;;5050333;28;20201;-81
2021/09/08 10:50:40;;;;;;;7.72;7.30;;;57.50;14.30;;;;;;5050227;28;20201;-81
2021/09/08 10:53:36;;;;;;;7.50;7.05;;;57.50;14.30;;;;;;5056712;28;20220;-81
2021/09/08 10:56:04;;;;;;;7.05;6.65;;;57.50;14.30;;;;;;5044624;28;20198;-82
2021/09/08 10:58:59;;;;;;;7.32;6.68;;;57.30;14.10;;;;;;5049302;28;20205;-81
2021/09/08 11:01:27;;;;;;;7.50;6.85;;;56.90;14.30;;;;;;5050399;28;20198;-81
2021/09/08 11:03:54;;;;;;;6.90;6.53;;;56.80;14.50;;;;;;5049010;28;20248;-81
2021/09/08 11:06:35;;;;;;;7.10;6.70;;;56.70;14.40;;;;;;5050092;28;20542;-81
2021/09/08 11:09:03;;;;;;;6.97;6.50;;;56.70;14.50;;;;;;5036973;28;20193;-81
2021/09/08 11:11:30;;;;;;;6.57;6.18;;;56.60;14.40;;;;;;5049477;28;20275;-80
2021/09/08 11:13:59;;;;;;;9.68;6.72;;;56.40;14.60;;;;;;5048980;28;20208;-80
2021/09/08 11:16:28;;;;;;;7.22;6.80;;;56.10;14.50;;;;;;5049386;28;20193;-81
2021/09/08 11:18:57;;;;;;;6.38;5.97;;;56.00;15.10;;;;;;5058798;28;20636;-80
2021/09/08 11:21:25;;;;;;;7.15;6.32;;;55.40;14.60;;;;;;5044025;28;20198;-81
2021/09/08 11:24:01;;;;;;;6.60;6.10;;;55.00;14.70;;;;;;5050347;28;20185;-81
2021/09/08 11:26:31;;;;;;;6.70;5.97;;;54.70;14.90;;;;;;5049521;28;20220;-81
2021/09/08 11:29:01;;;;;;;6.28;5.93;;;54.50;15.00;;;;;;5049303;28;20201;-81
2021/09/08 11:31:36;;;;;;;6.22;5.82;;;54.20;15.00;;;;;;5050065;28;20209;-81
2021/09/08 11:34:04;;;;;;;5.75;5.45;;;54.00;15.00;;;;;;5042729;28;20204;-80
2021/09/08 11:36:31;;;;;;;5.97;5.68;;;53.70;15.60;;;;;;5048554;28;20205;-80
2021/09/08 11:39:00;;;;;;;5.88;5.47;;;53.60;15.20;;;;;;5041421;28;20205;-80
2021/09/08 11:41:29;;;;;;;6.32;5.72;;;53.50;15.20;;;;;;5048788;28;20311;-80
2021/09/08 11:43:58;;;;;;;6.43;5.82;;;53.40;15.20;;;;;;5042826;28;20208;-81
2021/09/08 11:46:29;;;;;;;6.15;5.75;;;53.10;15.30;;;;;;5028957;28;20670;-81
2021/09/08 11:49:03;;;;;;;6.28;5.88;;;52.80;15.40;;;;;;5071122;28;20228;-81
2021/09/08 11:51:35;;;;;;;5.78;5.47;;;52.40;15.50;;;;;;5050273;28;20224;-81
2021/09/08 11:54:04;;;;;;;6.93;6.43;;;51.90;15.60;;;;;;5047472;28;20231;-81
2021/09/08 11:56:32;;;;;;;6.65;6.15;;;51.20;15.80;;;;;;5048561;28;20557;-80
2021/09/08 11:59:00;;;;;;;5.72;5.43;;;49.70;16.10;;;;;;5048054;28;20296;-80
2021/09/08 12:01:33;;;;;;;5.65;5.22;;;48.10;17.00;;;;;;5048122;28;20201;-80
2021/09/08 12:04:01;;;;;;;5.07;4.78;;;46.70;17.40;;;;;;5049301;28;20279;-80
2021/09/08 12:06:30;;;;;;;4.90;4.60;;;45.50;18.00;;;;;;5049161;28;20193;-79
2021/09/08 12:08:59;;;;;;;5.15;4.85;;;44.30;18.40;;;;;;5047742;28;20718;-79
2021/09/08 12:11:41;;;;;;;4.20;4.00;;;43.20;18.90;;;;;;5046166;28;20279;-79
2021/09/08 12:14:23;;;;;;;5.20;4.43;;;42.20;19.30;;;;;;5038007;28;20259;-79
2021/09/08 12:16:53;;;;;;;4.30;4.00;;;41.30;19.90;;;;;;5047199;28;20208;-79
2021/09/08 12:19:26;;;;;;;4.28;3.92;;;40.60;20.40;;;;;;5049541;28;20189;-79
2021/09/08 12:22:02;;;;;;;4.10;3.90;;;40.00;20.80;;;;;;5048818;28;20201;-78
2021/09/08 12:24:30;;;;;;;4.35;4.05;;;39.40;21.20;;;;;;5047412;28;20206;-79
2021/09/08 12:26:58;;;;;;;6.28;4.20;;;38.90;21.60;;;;;;5046702;28;20201;-78
2021/09/08 12:29:26;;;;;;;4.50;4.20;;;38.40;22.10;;;;;;5049599;28;20201;-78
2021/09/08 12:31:57;;;;;;;5.20;4.25;;;37.90;22.60;;;;;;5047777;28;20197;-80
2021/09/08 12:34:25;;;;;;;4.05;3.78;;;37.40;23.00;;;;;;5047889;28;20205;-79
2021/09/08 12:36:52;;;;;;;4.20;3.92;;;36.80;23.30;;;;;;5049330;28;20193;-79
2021/09/08 12:39:21;;;;;;;4.65;4.25;;;36.50;23.70;;;;;;5048729;28;20300;-79
2021/09/08 12:41:59;;;;;;;4.20;3.88;;;36.10;23.90;;;;;;5046970;28;20205;-79
2021/09/08 12:44:29;;;;;;;3.60;3.40;;;35.60;24.30;;;;;;5049059;28;20216;-79
2021/09/08 12:47:07;;;;;;;4.20;3.90;;;35.30;24.60;;;;;;5047765;28;20259;-79
2021/09/08 12:49:34;;;;;;;4.18;3.88;;;35.00;24.80;;;;;;5046161;28;20196;-79
2021/09/08 12:52:01;;;;;;;5.38;4.40;;;34.70;25.30;;;;;;5048637;28;20201;-80
2021/09/08 12:54:28;;;;;;;5.82;4.10;;;34.20;25.80;;;;;;5046842;28;20208;-79